sensor_id;sensor_type;location;lat;lon;timestamp;pressure;altitude;pressure_sealevel;temperature;humidity
6853;BME280;3465;42.144;24.722;2023-05-08T00:01:30;146351.44;;;13.74;77.80
6853;BME280;3465;42.144;24.722;2023-05-08T00:03:56;146369.06;;;13.81;77.48
6853;BME280;3465;42.144;24.722;2023-05-08T00:06:21;146370.28;;;13.81;77.72
6853;BME280;3465;42.144;24.722;2023-05-08T00:08:47;146377.81;;;13.84;77.20
6853;BME280;3465;42.144;24.722;2023-05-08T00:11:13;146382.84;;;13.86;76.37
6853;BME280;3465;42.144;24.722;2023-05-08T00:13:38;146336.41;;;13.68;75.83
6853;BME280;3465;42.144;24.722;2023-05-08T00:16:08;146365.22;;;13.79;75.54
6853;BME280;3465;42.144;24.722;2023-05-08T00:18:34;146366.50;;;13.80;76.13
6853;BME280;3465;42.144;24.722;2023-05-08T00:21:01;146391.63;;;13.90;75.34
6853;BME280;3465;42.144;24.722;2023-05-08T00:23:27;146414.22;;;13.99;74.98
6853;BME280;3465;42.144;24.722;2023-05-08T00:25:52;146361.47;;;13.78;75.96
6853;BME280;3465;42.144;24.722;2023-05-08T00:28:17;146353.94;;;13.75;76.16
6853;BME280;3465;42.144;24.722;2023-05-08T00:30:43;146312.53;;;13.58;76.63
6853;BME280;3465;42.144;24.722;2023-05-08T00:33:08;146312.53;;;13.58;76.10
6853;BME280;3465;42.144;24.722;2023-05-08T00:35:35;146370.28;;;13.81;76.17
6853;BME280;3465;42.144;24.722;2023-05-08T00:38:00;146348.97;;;13.73;76.53
6853;BME280;3465;42.144;24.722;2023-05-08T00:40:25;146307.50;;;13.56;77.19
6853;BME280;3465;42.144;24.722;2023-05-08T00:42:51;146338.88;;;13.69;77.43
6853;BME280;3465;42.144;24.722;2023-05-08T00:45:17;146303.75;;;13.55;77.14
6853;BME280;3465;42.144;24.722;2023-05-08T00:47:42;146283.66;;;13.47;77.72
6853;BME280;3465;42.144;24.722;2023-05-08T00:50:08;146284.88;;;13.47;77.80
6853;BME280;3465;42.144;24.722;2023-05-08T00:52:34;146273.59;;;13.43;78.58
6853;BME280;3465;42.144;24.722;2023-05-08T00:55:03;146261.03;;;13.38;78.92
6853;BME280;3465;42.144;24.722;2023-05-08T00:57:31;146249.75;;;13.33;78.75
6853;BME280;3465;42.144;24.722;2023-05-08T00:59:58;146256.03;;;13.36;79.21
6853;BME280;3465;42.144;24.722;2023-05-08T01:02:24;146272.38;;;13.42;78.12
6853;BME280;3465;42.144;24.722;2023-05-08T01:04:51;146271.09;;;13.42;77.53
6853;BME280;3465;42.144;24.722;2023-05-08T01:07:17;146273.59;;;13.43;77.02
6853;BME280;3465;42.144;24.722;2023-05-08T01:09:43;146239.72;;;13.29;77.52
6853;BME280;3465;42.144;24.722;2023-05-08T01:17:43;146224.63;;;13.23;77.15
6853;BME280;3465;42.144;24.722;2023-05-08T01:31:24;146188.25;;;13.09;77.09
6853;BME280;3465;42.144;24.722;2023-05-08T01:34:05;146174.44;;;13.03;76.52
6853;BME280;3465;42.144;24.722;2023-05-08T01:36:36;146183.25;;;13.07;76.21
6853;BME280;3465;42.144;24.722;2023-05-08T01:39:13;146180.69;;;13.06;76.96
6853;BME280;3465;42.144;24.722;2023-05-08T01:41:47;146159.34;;;12.97;77.39
6853;BME280;3465;42.144;24.722;2023-05-08T01:44:17;146150.56;;;12.93;78.03
6853;BME280;3465;42.144;24.722;2023-05-08T01:46:47;146174.44;;;13.03;77.57
6853;BME280;3465;42.144;24.722;2023-05-08T01:49:27;146155.59;;;12.95;77.58
6853;BME280;3465;42.144;24.722;2023-05-08T01:52:04;146150.56;;;12.93;77.15
6853;BME280;3465;42.144;24.722;2023-05-08T01:54:40;146131.75;;;12.86;77.28
6853;BME280;3465;42.144;24.722;2023-05-08T01:57:08;146115.44;;;12.79;78.09
6853;BME280;3465;42.144;24.722;2023-05-08T01:59:35;146107.91;;;12.76;78.43
6853;BME280;3465;42.144;24.722;2023-05-08T02:02:02;146111.66;;;12.78;79.76
6853;BME280;3465;42.144;24.722;2023-05-08T02:04:29;146125.44;;;12.83;79.92
6853;BME280;3465;42.144;24.722;2023-05-08T02:06:58;146144.25;;;12.91;78.08
6853;BME280;3465;42.144;24.722;2023-05-08T02:09:24;146130.47;;;12.85;76.38
6853;BME280;3465;42.144;24.722;2023-05-08T02:11:54;146141.75;;;12.90;77.30
6853;BME280;3465;42.144;24.722;2023-05-08T02:14:20;146145.53;;;12.91;76.52
6853;BME280;3465;42.144;24.722;2023-05-08T02:16:48;146160.56;;;12.97;76.51
6853;BME280;3465;42.144;24.722;2023-05-08T02:19:15;146150.56;;;12.93;75.88
6853;BME280;3465;42.144;24.722;2023-05-08T02:21:44;146143.03;;;12.90;76.04
6853;BME280;3465;42.144;24.722;2023-05-08T02:24:12;146158.06;;;12.96;76.07
6853;BME280;3465;42.144;24.722;2023-05-08T02:26:40;146163.09;;;12.98;77.21
6853;BME280;3465;42.144;24.722;2023-05-08T02:29:07;146135.50;;;12.87;76.65
6853;BME280;3465;42.144;24.722;2023-05-08T02:31:34;146159.34;;;12.97;77.55
6853;BME280;3465;42.144;24.722;2023-05-08T02:34:01;146145.53;;;12.91;75.81
6853;BME280;3465;42.144;24.722;2023-05-08T02:36:28;146160.56;;;12.97;76.65
6853;BME280;3465;42.144;24.722;2023-05-08T02:38:56;146131.75;;;12.86;76.41
6853;BME280;3465;42.144;24.722;2023-05-08T02:41:25;146097.84;;;12.72;74.71
6853;BME280;3465;42.144;24.722;2023-05-08T02:43:52;146131.75;;;12.86;74.43
6853;BME280;3465;42.144;24.722;2023-05-08T02:46:29;146126.72;;;12.84;74.21
6853;BME280;3465;42.144;24.722;2023-05-08T02:49:07;146070.25;;;12.61;75.07
6853;BME280;3465;42.144;24.722;2023-05-08T02:54:37;146077.78;;;12.64;75.41
6853;BME280;3465;42.144;24.722;2023-05-08T02:59:57;146048.91;;;12.53;76.00
6853;BME280;3465;42.144;24.722;2023-05-08T03:02:32;146092.81;;;12.70;75.80
6853;BME280;3465;42.144;24.722;2023-05-08T03:05:03;146097.84;;;12.72;76.43
6853;BME280;3465;42.144;24.722;2023-05-08T03:07:31;146090.31;;;12.69;76.09
6853;BME280;3465;42.144;24.722;2023-05-08T03:10:04;146038.91;;;12.49;76.32
6853;BME280;3465;42.144;24.722;2023-05-08T03:12:32;146045.16;;;12.51;76.56
6853;BME280;3465;42.144;24.722;2023-05-08T03:15:06;145988.69;;;12.29;76.94
6853;BME280;3465;42.144;24.722;2023-05-08T03:17:35;146041.38;;;12.50;77.26
6853;BME280;3465;42.144;24.722;2023-05-08T03:20:05;146057.69;;;12.56;78.87
6853;BME280;3465;42.144;24.722;2023-05-08T03:22:34;146075.28;;;12.63;79.86
6853;BME280;3465;42.144;24.722;2023-05-08T03:25:03;146084.03;;;12.67;79.50
6853;BME280;3465;42.144;24.722;2023-05-08T03:27:31;146087.84;;;12.68;77.61
6853;BME280;3465;42.144;24.722;2023-05-08T03:29:58;146089.06;;;12.69;75.27
6853;BME280;3465;42.144;24.722;2023-05-08T03:32:27;146080.25;;;12.65;74.36
6853;BME280;3465;42.144;24.722;2023-05-08T03:34:54;146066.50;;;12.60;74.39
6853;BME280;3465;42.144;24.722;2023-05-08T03:37:23;146047.69;;;12.52;74.93
6853;BME280;3465;42.144;24.722;2023-05-08T03:39:50;146036.34;;;12.48;75.15
6853;BME280;3465;42.144;24.722;2023-05-08T03:42:16;146065.22;;;12.59;75.51
6853;BME280;3465;42.144;24.722;2023-05-08T03:44:49;146065.22;;;12.59;76.18
6853;BME280;3465;42.144;24.722;2023-05-08T03:47:22;146060.19;;;12.57;75.97
6853;BME280;3465;42.144;24.722;2023-05-08T03:49:50;146061.47;;;12.58;76.39
6853;BME280;3465;42.144;24.722;2023-05-08T03:52:16;146072.75;;;12.62;77.29
6853;BME280;3465;42.144;24.722;2023-05-08T03:54:41;146095.34;;;12.71;79.66
6853;BME280;3465;42.144;24.722;2023-05-08T03:57:07;146102.88;;;12.74;78.08
6853;BME280;3465;42.144;24.722;2023-05-08T04:00:02;146082.81;;;12.66;77.09
6853;BME280;3465;42.144;24.722;2023-05-08T04:05:33;146135.50;;;12.87;80.76
6853;BME280;3465;42.144;24.722;2023-05-08T04:10:49;146132.97;;;12.86;91.16
6853;BME280;3465;42.144;24.722;2023-05-08T04:13:22;146096.56;;;12.72;92.47
6853;BME280;3465;42.144;24.722;2023-05-08T04:15:51;146114.16;;;12.79;92.50
6853;BME280;3465;42.144;24.722;2023-05-08T04:18:24;146115.44;;;12.79;92.00
6853;BME280;3465;42.144;24.722;2023-05-08T04:20:53;146145.53;;;12.91;90.96
6853;BME280;3465;42.144;24.722;2023-05-08T04:23:21;146144.25;;;12.91;90.94
6853;BME280;3465;42.144;24.722;2023-05-08T04:25:48;146148.06;;;12.92;91.19
6853;BME280;3465;42.144;24.722;2023-05-08T04:28:16;146168.19;;;13.01;90.28
6853;BME280;3465;42.144;24.722;2023-05-08T04:30:42;146163.09;;;12.98;90.77
6853;BME280;3465;42.144;24.722;2023-05-08T04:33:08;146176.94;;;13.04;91.03
6853;BME280;3465;42.144;24.722;2023-05-08T04:35:34;146178.19;;;13.05;90.20
6853;BME280;3465;42.144;24.722;2023-05-08T04:37:59;146173.16;;;13.03;91.52
6853;BME280;3465;42.144;24.722;2023-05-08T04:40:25;146150.56;;;12.93;91.31
6853;BME280;3465;42.144;24.722;2023-05-08T04:42:50;146203.31;;;13.15;90.53
6853;BME280;3465;42.144;24.722;2023-05-08T04:45:16;146222.13;;;13.22;90.44
6853;BME280;3465;42.144;24.722;2023-05-08T04:47:42;146274.84;;;13.43;89.31
6853;BME280;3465;42.144;24.722;2023-05-08T04:50:07;146298.72;;;13.53;89.01
6853;BME280;3465;42.144;24.722;2023-05-08T04:52:33;146274.84;;;13.43;89.91
6853;BME280;3465;42.144;24.722;2023-05-08T04:54:58;146288.69;;;13.49;89.77
6853;BME280;3465;42.144;24.722;2023-05-08T04:57:24;146284.88;;;13.47;90.17
6853;BME280;3465;42.144;24.722;2023-05-08T04:59:49;146348.97;;;13.73;88.54
6853;BME280;3465;42.144;24.722;2023-05-08T05:02:15;146381.56;;;13.86;87.80
6853;BME280;3465;42.144;24.722;2023-05-08T05:04:40;146406.69;;;13.96;87.25
6853;BME280;3465;42.144;24.722;2023-05-08T05:07:05;146421.75;;;14.02;87.31
6853;BME280;3465;42.144;24.722;2023-05-08T05:09:31;146479.59;;;14.25;85.34
6853;BME280;3465;42.144;24.722;2023-05-08T05:12:04;146503.47;;;14.34;85.28
6853;BME280;3465;42.144;24.722;2023-05-08T05:14:31;146547.44;;;14.52;84.29
6853;BME280;3465;42.144;24.722;2023-05-08T05:16:57;146582.63;;;14.66;82.83
6853;BME280;3465;42.144;24.722;2023-05-08T05:19:23;146597.72;;;14.72;82.32
6853;BME280;3465;42.144;24.722;2023-05-08T05:21:48;146620.34;;;14.81;81.92
6853;BME280;3465;42.144;24.722;2023-05-08T05:24:13;146592.69;;;14.70;81.12
6853;BME280;3465;42.144;24.722;2023-05-08T05:26:39;146483.38;;;14.26;82.94
6853;BME280;3465;42.144;24.722;2023-05-08T05:29:05;146498.44;;;14.32;82.65
6853;BME280;3465;42.144;24.722;2023-05-08T05:31:30;146502.19;;;14.34;79.98
6853;BME280;3465;42.144;24.722;2023-05-08T05:33:56;146558.75;;;14.57;79.41
6853;BME280;3465;42.144;24.722;2023-05-08T05:36:21;146610.31;;;14.77;78.95
6853;BME280;3465;42.144;24.722;2023-05-08T05:38:47;146646.72;;;14.92;78.39
6853;BME280;3465;42.144;24.722;2023-05-08T05:41:12;146668.09;;;15.00;76.59
6853;BME280;3465;42.144;24.722;2023-05-08T05:43:38;146581.41;;;14.66;68.27
6853;BME280;3465;42.144;24.722;2023-05-08T05:46:07;146753.59;;;15.34;65.42
6853;BME280;3465;42.144;24.722;2023-05-08T05:48:33;146742.28;;;15.30;64.51
6853;BME280;3465;42.144;24.722;2023-05-08T05:50:59;146764.97;;;15.39;63.81
6853;BME280;3465;42.144;24.722;2023-05-08T05:53:25;146814.03;;;15.58;64.11
6853;BME280;3465;42.144;24.722;2023-05-08T05:55:50;146883.22;;;15.86;62.03
6853;BME280;3465;42.144;24.722;2023-05-08T05:58:17;146936.06;;;16.07;60.62
6853;BME280;3465;42.144;24.722;2023-05-08T06:00:42;146995.19;;;16.31;60.07
6853;BME280;3465;42.144;24.722;2023-05-08T06:03:08;147070.72;;;16.61;58.15
6853;BME280;3465;42.144;24.722;2023-05-08T06:05:35;147083.31;;;16.66;57.20
6853;BME280;3465;42.144;24.722;2023-05-08T06:08:00;147145.03;;;16.90;56.33
6853;BME280;3465;42.144;24.722;2023-05-08T06:10:25;147168.94;;;17.00;56.04
6853;BME280;3465;42.144;24.722;2023-05-08T06:12:51;147302.50;;;17.53;55.16
6853;BME280;3465;42.144;24.722;2023-05-08T06:15:17;147482.69;;;18.25;52.33
6853;BME280;3465;42.144;24.722;2023-05-08T06:17:43;147632.78;;;18.85;50.85
6853;BME280;3465;42.144;24.722;2023-05-08T06:20:08;147873.75;;;19.80;48.10
6853;BME280;3465;42.144;24.722;2023-05-08T06:22:34;148087.16;;;20.65;45.25
6853;BME280;3465;42.144;24.722;2023-05-08T06:25:01;148241.31;;;21.26;44.24
6853;BME280;3465;42.144;24.722;2023-05-08T06:27:27;148243.88;;;21.27;43.78
6853;BME280;3465;42.144;24.722;2023-05-08T06:29:52;148289.31;;;21.46;43.21
6853;BME280;3465;42.144;24.722;2023-05-08T06:32:18;148289.31;;;21.46;42.45
6853;BME280;3465;42.144;24.722;2023-05-08T06:34:44;148489.09;;;22.25;41.10
6853;BME280;3465;42.144;24.722;2023-05-08T06:37:10;148676.34;;;22.99;40.24
6853;BME280;3465;42.144;24.722;2023-05-08T06:39:35;148638.38;;;22.84;40.60
6853;BME280;3465;42.144;24.722;2023-05-08T06:42:01;149076.47;;;24.58;38.72
6853;BME280;3465;42.144;24.722;2023-05-08T06:44:26;149200.63;;;25.07;35.62
6853;BME280;3465;42.144;24.722;2023-05-08T06:46:52;149426.34;;;25.96;34.34
6853;BME280;3465;42.144;24.722;2023-05-08T06:49:17;149874.31;;;27.73;33.39
6853;BME280;3465;42.144;24.722;2023-05-08T06:51:42;150034.38;;;28.37;31.52
6853;BME280;3465;42.144;24.722;2023-05-08T06:54:08;149586.16;;;26.59;32.97
6853;BME280;3465;42.144;24.722;2023-05-08T06:56:34;149156.28;;;24.89;34.60
6853;BME280;3465;42.144;24.722;2023-05-08T06:58:59;148839.59;;;23.64;37.25
6853;BME280;3465;42.144;24.722;2023-05-08T07:01:25;148858.63;;;23.71;37.56
6853;BME280;3465;42.144;24.722;2023-05-08T07:03:50;149123.34;;;24.76;35.72
6853;BME280;3465;42.144;24.722;2023-05-08T07:06:16;149419.97;;;25.94;34.59
6853;BME280;3465;42.144;24.722;2023-05-08T07:08:41;149619.19;;;26.73;33.23
6853;BME280;3465;42.144;24.722;2023-05-08T07:11:06;149598.91;;;26.64;33.07
6853;BME280;3465;42.144;24.722;2023-05-08T07:13:34;149257.66;;;25.29;35.15
6853;BME280;3465;42.144;24.722;2023-05-08T07:16:00;149258.94;;;25.30;35.65
6853;BME280;3465;42.144;24.722;2023-05-08T07:18:25;149239.97;;;25.22;35.30
6853;BME280;3465;42.144;24.722;2023-05-08T07:20:50;149080.25;;;24.59;36.37
6853;BME280;3465;42.144;24.722;2023-05-08T07:23:16;149125.91;;;24.77;35.95
6853;BME280;3465;42.144;24.722;2023-05-08T07:25:42;149108.16;;;24.70;36.32
6853;BME280;3465;42.144;24.722;2023-05-08T07:28:07;149502.47;;;26.26;34.31
6853;BME280;3465;42.144;24.722;2023-05-08T07:30:32;149903.53;;;27.85;32.50
6853;BME280;3465;42.144;24.722;2023-05-08T07:32:58;150233.94;;;29.15;31.25
6853;BME280;3465;42.144;24.722;2023-05-08T07:35:23;150457.72;;;30.04;29.81
6853;BME280;3465;42.144;24.722;2023-05-08T07:37:49;150511.19;;;30.25;29.43
6853;BME280;3465;42.144;24.722;2023-05-08T07:40:14;150590.03;;;30.56;28.77
6853;BME280;3465;42.144;24.722;2023-05-08T07:42:41;150814.06;;;31.44;28.42
6853;BME280;3465;42.144;24.722;2023-05-08T07:45:08;151045.88;;;32.36;27.98
6853;BME280;3465;42.144;24.722;2023-05-08T07:47:33;151237.06;;;33.11;25.69
6853;BME280;3465;42.144;24.722;2023-05-08T07:49:59;151332.66;;;33.49;25.11
6853;BME280;3465;42.144;24.722;2023-05-08T07:52:25;151401.47;;;33.76;25.93
6853;BME280;3465;42.144;24.722;2023-05-08T07:54:50;151502.28;;;34.15;25.48
6853;BME280;3465;42.144;24.722;2023-05-08T07:57:16;151128.69;;;32.68;26.35
6853;BME280;3465;42.144;24.722;2023-05-08T07:59:41;151210.28;;;33.00;25.65
6853;BME280;3465;42.144;24.722;2023-05-08T08:02:06;151386.19;;;33.70;25.64
6853;BME280;3465;42.144;24.722;2023-05-08T08:04:32;151384.91;;;33.69;25.52
6853;BME280;3465;42.144;24.722;2023-05-08T08:06:57;151293.13;;;33.33;24.62
6853;BME280;3465;42.144;24.722;2023-05-08T08:09:23;151073.94;;;32.47;26.44
6853;BME280;3465;42.144;24.722;2023-05-08T08:11:48;151031.84;;;32.30;26.27
6853;BME280;3465;42.144;24.722;2023-05-08T08:14:13;151017.81;;;32.25;26.56
6853;BME280;3465;42.144;24.722;2023-05-08T08:16:39;150882.84;;;31.71;27.22
6853;BME280;3465;42.144;24.722;2023-05-08T08:19:04;151001.25;;;32.18;26.65
6853;BME280;3465;42.144;24.722;2023-05-08T08:21:30;150979.66;;;32.10;25.99
6853;BME280;3465;42.144;24.722;2023-05-08T08:23:56;151002.56;;;32.19;26.34
6853;BME280;3465;42.144;24.722;2023-05-08T08:26:23;151127.44;;;32.68;26.06
6853;BME280;3465;42.144;24.722;2023-05-08T08:28:49;150980.91;;;32.10;26.56
6853;BME280;3465;42.144;24.722;2023-05-08T08:31:15;150405.59;;;29.83;28.58
6853;BME280;3465;42.144;24.722;2023-05-08T08:33:41;150130.97;;;28.75;30.09
6853;BME280;3465;42.144;24.722;2023-05-08T08:36:12;150040.72;;;28.39;31.23
6853;BME280;3465;42.144;24.722;2023-05-08T08:38:38;150359.81;;;29.65;30.76
6853;BME280;3465;42.144;24.722;2023-05-08T08:41:03;150663.88;;;30.85;29.00
6853;BME280;3465;42.144;24.722;2023-05-08T08:43:28;150915.97;;;31.84;28.20
6853;BME280;3465;42.144;24.722;2023-05-08T08:45:55;151082.81;;;32.50;27.89
6853;BME280;3465;42.144;24.722;2023-05-08T08:48:21;151452.53;;;33.96;26.25
6853;BME280;3465;42.144;24.722;2023-05-08T08:50:52;151660.47;;;34.78;25.00
6853;BME280;3465;42.144;24.722;2023-05-08T08:53:25;151830.22;;;35.44;24.65
6853;BME280;3465;42.144;24.722;2023-05-08T08:55:53;152037.09;;;36.26;23.80
6853;BME280;3465;42.144;24.722;2023-05-08T08:58:27;152031.97;;;36.24;23.79
6853;BME280;3465;42.144;24.722;2023-05-08T09:00:56;151816.22;;;35.39;23.88
6853;BME280;3465;42.144;24.722;2023-05-08T09:03:23;151682.16;;;34.86;25.03
6853;BME280;3465;42.144;24.722;2023-05-08T09:05:48;151601.78;;;34.54;25.33
6853;BME280;3465;42.144;24.722;2023-05-08T09:08:14;151650.22;;;34.73;24.79
6853;BME280;3465;42.144;24.722;2023-05-08T09:10:39;151871.06;;;35.60;23.72
6853;BME280;3465;42.144;24.722;2023-05-08T09:13:05;151762.56;;;35.18;23.94
6853;BME280;3465;42.144;24.722;2023-05-08T09:15:32;151216.66;;;33.03;25.54
6853;BME280;3465;42.144;24.722;2023-05-08T09:17:58;151402.78;;;33.76;24.92
6853;BME280;3465;42.144;24.722;2023-05-08T09:20:24;151716.63;;;35.00;24.92
6853;BME280;3465;42.144;24.722;2023-05-08T09:22:51;152094.59;;;36.48;23.69
6853;BME280;3465;42.144;24.722;2023-05-08T09:25:17;152095.84;;;36.49;23.24
6853;BME280;3465;42.144;24.722;2023-05-08T09:27:43;152168.72;;;36.77;22.82
6853;BME280;3465;42.144;24.722;2023-05-08T09:30:10;151975.81;;;36.02;23.63
6853;BME280;3465;42.144;24.722;2023-05-08T09:32:40;152125.22;;;36.60;23.74
6853;BME280;3465;42.144;24.722;2023-05-08T09:35:07;152172.56;;;36.79;23.43
6853;BME280;3465;42.144;24.722;2023-05-08T09:37:37;152149.47;;;36.70;23.23
6853;BME280;3465;42.144;24.722;2023-05-08T09:40:12;152056.28;;;36.33;23.66
6853;BME280;3465;42.144;24.722;2023-05-08T09:42:38;152120.09;;;36.58;23.89
6853;BME280;3465;42.144;24.722;2023-05-08T09:45:04;152060.09;;;36.35;22.75
6853;BME280;3465;42.144;24.722;2023-05-08T09:47:30;152207.00;;;36.92;23.38
6853;BME280;3465;42.144;24.722;2023-05-08T09:50:00;152369.28;;;37.56;22.49
6853;BME280;3465;42.144;24.722;2023-05-08T09:52:27;152337.34;;;37.44;22.82
6853;BME280;3465;42.144;24.722;2023-05-08T09:55:00;152278.56;;;37.20;23.34
6853;BME280;3465;42.144;24.722;2023-05-08T09:57:29;152307.97;;;37.32;23.25
6853;BME280;3465;42.144;24.722;2023-05-08T10:00:09;152217.25;;;36.96;23.44
6853;BME280;3465;42.144;24.722;2023-05-08T10:02:38;152086.94;;;36.45;23.91
6853;BME280;3465;42.144;24.722;2023-05-08T10:07:52;152199.34;;;36.89;23.81
6853;BME280;3465;42.144;24.722;2023-05-08T10:10:23;152309.25;;;37.33;23.27
6853;BME280;3465;42.144;24.722;2023-05-08T10:12:52;152361.63;;;37.53;23.46
6853;BME280;3465;42.144;24.722;2023-05-08T10:15:22;151920.84;;;35.80;23.78
6853;BME280;3465;42.144;24.722;2023-05-08T10:18:06;151978.34;;;36.03;24.50
6853;BME280;3465;42.144;24.722;2023-05-08T10:20:34;152051.16;;;36.31;23.31
6853;BME280;3465;42.144;24.722;2023-05-08T10:23:00;151428.28;;;33.86;25.49
6853;BME280;3465;42.144;24.722;2023-05-08T10:25:31;151205.16;;;32.98;26.66
6853;BME280;3465;42.144;24.722;2023-05-08T10:28:09;151333.94;;;33.49;26.68
6853;BME280;3465;42.144;24.722;2023-05-08T10:30:42;151280.38;;;33.28;26.97
6853;BME280;3465;42.144;24.722;2023-05-08T10:33:09;151353.06;;;33.57;27.12
6853;BME280;3465;42.144;24.722;2023-05-08T10:35:38;151480.59;;;34.07;26.08
6853;BME280;3465;42.144;24.722;2023-05-08T10:38:07;151747.28;;;35.12;26.20
6853;BME280;3465;42.144;24.722;2023-05-08T10:40:33;151781.69;;;35.25;25.24
6853;BME280;3465;42.144;24.722;2023-05-08T10:42:59;151857.06;;;35.55;25.38
6853;BME280;3465;42.144;24.722;2023-05-08T10:45:25;151765.09;;;35.19;24.39
6853;BME280;3465;42.144;24.722;2023-05-08T10:48:07;151977.06;;;36.02;24.54
6853;BME280;3465;42.144;24.722;2023-05-08T10:53:30;151950.25;;;35.91;24.93
6853;BME280;3465;42.144;24.722;2023-05-08T10:55:58;151643.88;;;34.71;25.86
6853;BME280;3465;42.144;24.722;2023-05-08T10:58:36;151687.22;;;34.88;25.62
6853;BME280;3465;42.144;24.722;2023-05-08T11:01:09;151498.47;;;34.14;26.65
6853;BME280;3465;42.144;24.722;2023-05-08T11:06:05;151760.03;;;35.17;25.42
6853;BME280;3465;42.144;24.722;2023-05-08T11:08:31;151826.41;;;35.43;25.81
6853;BME280;3465;42.144;24.722;2023-05-08T11:13:34;151822.56;;;35.41;25.29
6853;BME280;3465;42.144;24.722;2023-05-08T11:16:00;151878.72;;;35.63;25.24
6853;BME280;3465;42.144;24.722;2023-05-08T11:18:27;151823.88;;;35.42;25.67
6853;BME280;3465;42.144;24.722;2023-05-08T11:20:59;151545.63;;;34.32;26.25
6853;BME280;3465;42.144;24.722;2023-05-08T11:23:42;151489.53;;;34.10;26.31
6853;BME280;3465;42.144;24.722;2023-05-08T11:26:14;151266.31;;;33.22;26.65
6853;BME280;3465;42.144;24.722;2023-05-08T11:31:18;151002.56;;;32.19;29.04
6853;BME280;3465;42.144;24.722;2023-05-08T11:33:44;151017.81;;;32.25;29.91
6853;BME280;3465;42.144;24.722;2023-05-08T11:38:38;151112.13;;;32.62;29.36
6853;BME280;3465;42.144;24.722;2023-05-08T11:41:07;151211.56;;;33.01;28.61
6853;BME280;3465;42.144;24.722;2023-05-08T11:43:47;151234.47;;;33.10;28.90
6853;BME280;3465;42.144;24.722;2023-05-08T11:46:16;151071.38;;;32.46;29.18
6853;BME280;3465;42.144;24.722;2023-05-08T11:48:42;151137.63;;;32.72;28.12
6853;BME280;3465;42.144;24.722;2023-05-08T11:51:08;151186.06;;;32.91;29.23
6853;BME280;3465;42.144;24.722;2023-05-08T11:53:35;151177.09;;;32.87;29.53
6853;BME280;3465;42.144;24.722;2023-05-08T11:56:01;151316.09;;;33.42;28.72
6853;BME280;3465;42.144;24.722;2023-05-08T11:58:27;151548.16;;;34.33;27.10
6853;BME280;3465;42.144;24.722;2023-05-08T12:00:52;151341.59;;;33.52;29.18
6853;BME280;3465;42.144;24.722;2023-05-08T12:03:21;151165.63;;;32.83;29.68
6853;BME280;3465;42.144;24.722;2023-05-08T12:05:47;151045.88;;;32.36;30.01
6853;BME280;3465;42.144;24.722;2023-05-08T12:08:15;151247.22;;;33.15;29.67
6853;BME280;3465;42.144;24.722;2023-05-08T12:10:50;151290.59;;;33.32;28.40
6853;BME280;3465;42.144;24.722;2023-05-08T12:15:42;151205.16;;;32.98;29.68
6853;BME280;3465;42.144;24.722;2023-05-08T12:18:08;151262.50;;;33.21;29.78
6853;BME280;3465;42.144;24.722;2023-05-08T12:20:33;151272.72;;;33.25;29.30
6853;BME280;3465;42.144;24.722;2023-05-08T12:23:01;151129.97;;;32.69;29.88
6853;BME280;3465;42.144;24.722;2023-05-08T12:25:26;150909.56;;;31.82;31.38
6853;BME280;3465;42.144;24.722;2023-05-08T12:27:52;150660.06;;;30.84;32.54
6853;BME280;3465;42.144;24.722;2023-05-08T12:30:18;150583.69;;;30.53;33.13
6853;BME280;3465;42.144;24.722;2023-05-08T12:32:45;150541.69;;;30.37;33.93
6853;BME280;3465;42.144;24.722;2023-05-08T12:35:12;150417.03;;;29.88;33.62
6853;BME280;3465;42.144;24.722;2023-05-08T12:37:38;150361.13;;;29.66;34.42
6853;BME280;3465;42.144;24.722;2023-05-08T12:40:04;150286.03;;;29.36;34.76
6853;BME280;3465;42.144;24.722;2023-05-08T12:42:49;150286.03;;;29.36;35.65
6853;BME280;3465;42.144;24.722;2023-05-08T12:47:50;150432.28;;;29.94;35.38
6853;BME280;3465;42.144;24.722;2023-05-08T12:50:18;150334.34;;;29.55;35.43
6853;BME280;3465;42.144;24.722;2023-05-08T12:52:47;150289.84;;;29.37;35.59
6853;BME280;3465;42.144;24.722;2023-05-08T12:55:27;150305.09;;;29.43;36.70
6853;BME280;3465;42.144;24.722;2023-05-08T13:00:34;150267.00;;;29.28;36.05
6853;BME280;3465;42.144;24.722;2023-05-08T13:03:01;150247.91;;;29.21;35.77
6853;BME280;3465;42.144;24.722;2023-05-08T13:05:26;150158.91;;;28.86;36.27
6853;BME280;3465;42.144;24.722;2023-05-08T13:08:00;150235.25;;;29.16;36.74
6853;BME280;3465;42.144;24.722;2023-05-08T13:10:42;150260.63;;;29.26;36.39
6853;BME280;3465;42.144;24.722;2023-05-08T13:13:08;150261.91;;;29.26;35.94
6853;BME280;3465;42.144;24.722;2023-05-08T13:15:34;150171.63;;;28.91;36.73
6853;BME280;3465;42.144;24.722;2023-05-08T13:17:59;150237.75;;;29.17;37.13
6853;BME280;3465;42.144;24.722;2023-05-08T13:20:24;150228.84;;;29.13;36.09
6853;BME280;3465;42.144;24.722;2023-05-08T13:22:50;150251.75;;;29.22;36.34
6853;BME280;3465;42.144;24.722;2023-05-08T13:25:15;150251.75;;;29.22;36.27
6853;BME280;3465;42.144;24.722;2023-05-08T13:27:41;150181.81;;;28.95;36.78
6853;BME280;3465;42.144;24.722;2023-05-08T13:30:07;150119.53;;;28.70;37.73
6853;BME280;3465;42.144;24.722;2023-05-08T13:32:32;150104.31;;;28.64;37.83
6853;BME280;3465;42.144;24.722;2023-05-08T13:34:57;150052.19;;;28.44;37.88
6853;BME280;3465;42.144;24.722;2023-05-08T13:37:23;150007.72;;;28.26;36.84
6853;BME280;3465;42.144;24.722;2023-05-08T13:39:48;149995.03;;;28.21;37.63
6853;BME280;3465;42.144;24.722;2023-05-08T13:42:14;149967.09;;;28.10;38.44
6853;BME280;3465;42.144;24.722;2023-05-08T13:44:39;149903.53;;;27.85;38.18
6853;BME280;3465;42.144;24.722;2023-05-08T13:47:04;149959.44;;;28.07;38.30
6853;BME280;3465;42.144;24.722;2023-05-08T13:49:30;150052.19;;;28.44;37.62
6853;BME280;3465;42.144;24.722;2023-05-08T13:51:55;150040.72;;;28.39;37.94
6853;BME280;3465;42.144;24.722;2023-05-08T13:54:21;150005.16;;;28.25;38.61